createdAt,value
2017-12-09T00:02:01.239Z,-2.10
2017-12-09T00:04:29.526Z,-2.00
2017-12-09T00:06:57.815Z,-2.00
2017-12-09T00:09:26.196Z,-2.00
2017-12-09T00:11:54.599Z,-2.00
2017-12-09T00:14:22.940Z,-2.00
2017-12-09T00:16:51.241Z,-2.00
2017-12-09T00:19:19.588Z,-2.10
2017-12-09T00:21:47.915Z,-2.10
2017-12-09T00:24:16.234Z,-2.00
2017-12-09T00:26:44.588Z,-2.10
2017-12-09T00:29:12.950Z,-2.10
2017-12-09T00:31:41.242Z,-2.00
2017-12-09T00:34:10.339Z,-2.00
2017-12-09T00:36:38.728Z,-2.10
2017-12-09T00:39:07.055Z,-2.00
2017-12-09T00:41:35.349Z,-2.10
2017-12-09T00:44:03.689Z,-2.10
2017-12-09T00:46:32.075Z,-2.00
2017-12-09T00:49:00.424Z,-2.00
2017-12-09T00:51:28.806Z,-2.00
2017-12-09T00:53:57.181Z,-2.00
2017-12-09T00:56:26.319Z,-2.00
2017-12-09T00:58:54.703Z,-2.10
2017-12-09T01:01:23.072Z,-2.00
2017-12-09T01:03:52.213Z,-2.10
2017-12-09T01:06:20.588Z,-2.10
2017-12-09T01:08:48.899Z,-2.10
2017-12-09T01:11:17.209Z,-2.10
2017-12-09T01:13:46.505Z,-2.10
2017-12-09T01:16:26.563Z,-2.00
2017-12-09T01:18:56.641Z,-2.00
2017-12-09T01:21:25.004Z,-2.10
2017-12-09T01:23:53.368Z,-2.10
2017-12-09T01:26:21.777Z,-2.00
2017-12-09T01:28:50.161Z,-2.00
2017-12-09T01:31:18.515Z,-2.00
2017-12-09T01:33:47.615Z,-2.00
2017-12-09T01:36:15.892Z,-2.00
2017-12-09T01:38:44.175Z,-2.00
2017-12-09T01:41:12.519Z,-2.00
2017-12-09T01:43:41.216Z,-2.00
2017-12-09T01:46:09.909Z,-2.00
2017-12-09T01:48:39.563Z,-2.00
2017-12-09T01:51:08.394Z,-2.00
2017-12-09T01:53:38.539Z,-1.90
2017-12-09T01:56:07.444Z,-1.90
2017-12-09T01:58:36.196Z,-1.90
2017-12-09T02:01:05.409Z,-2.00
2017-12-09T02:03:34.026Z,-2.00
2017-12-09T02:06:03.428Z,-2.00
2017-12-09T02:08:31.800Z,-2.00
2017-12-09T02:11:00.225Z,-2.00
2017-12-09T02:13:28.555Z,-2.10
2017-12-09T02:15:56.919Z,-2.10
2017-12-09T02:18:26.017Z,-2.10
2017-12-09T02:20:54.331Z,-2.10
2017-12-09T02:23:24.447Z,-2.10
2017-12-09T02:25:52.836Z,-2.10
2017-12-09T02:28:21.156Z,-2.10
2017-12-09T02:30:49.484Z,-2.10
2017-12-09T02:33:17.807Z,-2.10
2017-12-09T02:35:46.126Z,-2.10
2017-12-09T02:38:14.488Z,-2.10
2017-12-09T02:40:43.636Z,-2.10
2017-12-09T02:43:12.944Z,-2.10
2017-12-09T02:48:18.515Z,-2.20
2017-12-09T02:50:48.525Z,-2.20
2017-12-09T02:53:17.011Z,-2.20
2017-12-09T02:55:45.343Z,-2.20
2017-12-09T02:58:13.677Z,-2.20
2017-12-09T03:00:41.990Z,-2.20
2017-12-09T03:03:10.365Z,-2.20
2017-12-09T03:05:38.725Z,-2.20
2017-12-09T03:08:07.129Z,-2.20
2017-12-09T03:10:35.786Z,-2.20
2017-12-09T03:13:04.147Z,-2.20
2017-12-09T03:15:32.518Z,-2.20
2017-12-09T03:18:00.945Z,-2.20
2017-12-09T03:20:30.104Z,-2.30
2017-12-09T03:22:58.503Z,-2.30
2017-12-09T03:25:26.893Z,-2.30
2017-12-09T03:27:55.189Z,-2.30
2017-12-09T03:30:23.482Z,-2.20
2017-12-09T03:32:51.774Z,-2.20
2017-12-09T03:35:20.143Z,-2.20
2017-12-09T03:37:48.459Z,-2.20
2017-12-09T03:40:16.754Z,-2.20
2017-12-09T03:42:45.825Z,-2.30
2017-12-09T03:45:14.120Z,-2.30
2017-12-09T03:47:43.177Z,-2.30
2017-12-09T03:50:12.274Z,-2.30
2017-12-09T03:52:41.402Z,-2.30
2017-12-09T03:55:09.703Z,-2.30
2017-12-09T03:57:37.996Z,-2.30
2017-12-09T04:00:22.831Z,-2.30
2017-12-09T04:02:51.135Z,-2.30
2017-12-09T04:05:19.502Z,-2.40
2017-12-09T04:07:47.888Z,-2.30
2017-12-09T04:10:16.272Z,-2.30
2017-12-09T04:12:44.595Z,-2.30
2017-12-09T04:15:13.728Z,-2.30
2017-12-09T04:17:42.031Z,-2.30
2017-12-09T04:20:11.176Z,-2.40
2017-12-09T04:22:39.499Z,-2.40
2017-12-09T04:25:08.647Z,-2.40
2017-12-09T04:27:36.957Z,-2.40
2017-12-09T04:30:05.323Z,-2.40
2017-12-09T04:32:33.674Z,-2.40
2017-12-09T04:35:02.822Z,-2.40
2017-12-09T04:37:31.192Z,-2.40
2017-12-09T04:39:59.486Z,-2.40
2017-12-09T04:42:27.800Z,-2.40
2017-12-09T04:44:56.094Z,-2.40
2017-12-09T04:47:24.385Z,-2.40
2017-12-09T04:49:52.714Z,-2.40
2017-12-09T04:52:21.106Z,-2.40
2017-12-09T04:54:49.493Z,-2.40
2017-12-09T04:57:17.833Z,-2.40
2017-12-09T04:59:46.195Z,-2.40
2017-12-09T05:02:16.227Z,-2.40
2017-12-09T05:04:44.604Z,-2.40
2017-12-09T05:07:12.982Z,-2.40
2017-12-09T05:09:42.223Z,-2.40
2017-12-09T05:12:10.574Z,-2.40
2017-12-09T05:14:39.901Z,-2.40
2017-12-09T05:17:09.027Z,-2.50
2017-12-09T05:19:38.144Z,-2.50
2017-12-09T05:22:07.397Z,-2.50
2017-12-09T05:24:35.775Z,-2.50
2017-12-09T05:27:04.179Z,-2.50
2017-12-09T05:29:32.527Z,-2.60
2017-12-09T05:32:00.851Z,-2.60
2017-12-09T05:34:29.244Z,-2.60
2017-12-09T05:36:57.522Z,-2.60
2017-12-09T05:39:25.945Z,-2.60
2017-12-09T05:41:54.238Z,-2.70
2017-12-09T05:44:22.531Z,-2.70
2017-12-09T05:46:50.826Z,-2.70
2017-12-09T05:49:19.211Z,-2.80
2017-12-09T05:51:47.594Z,-2.80
2017-12-09T05:54:15.990Z,-2.80
2017-12-09T05:56:44.291Z,-2.90
2017-12-09T05:59:13.417Z,-3.00
2017-12-09T06:01:41.768Z,-3.00
2017-12-09T06:04:10.153Z,-3.00
2017-12-09T06:06:38.494Z,-3.00
2017-12-09T06:09:07.610Z,-3.00
2017-12-09T06:11:35.940Z,-3.10
2017-12-09T06:14:04.341Z,-3.00
2017-12-09T06:16:32.794Z,-3.10
2017-12-09T06:19:01.079Z,-3.10
2017-12-09T06:21:29.390Z,-3.10
2017-12-09T06:23:57.696Z,-3.10
2017-12-09T06:26:25.988Z,-3.10
2017-12-09T06:28:54.473Z,-3.20
2017-12-09T06:31:22.770Z,-3.10
2017-12-09T06:33:52.039Z,-3.10
2017-12-09T06:36:20.332Z,-3.10
2017-12-09T06:38:49.620Z,-3.10
2017-12-09T06:41:17.964Z,-3.10
2017-12-09T06:43:46.253Z,-3.10
2017-12-09T06:46:14.552Z,-3.10
2017-12-09T06:48:43.601Z,-3.00
2017-12-09T06:51:11.889Z,-3.00
2017-12-09T06:53:40.968Z,-3.00
2017-12-09T06:56:09.348Z,-3.00
2017-12-09T06:58:37.704Z,-3.00
2017-12-09T07:01:06.067Z,-3.00
2017-12-09T07:03:35.202Z,-3.00
2017-12-09T07:06:03.606Z,-3.00
2017-12-09T07:08:32.889Z,-2.90
2017-12-09T07:11:01.300Z,-2.90
2017-12-09T07:13:29.605Z,-2.90
2017-12-09T07:15:57.907Z,-2.90
2017-12-09T07:18:26.248Z,-2.90
2017-12-09T07:20:54.550Z,-2.90
2017-12-09T07:23:22.843Z,-2.90
2017-12-09T07:25:51.156Z,-2.90
2017-12-09T07:28:19.451Z,-2.90
2017-12-09T07:30:47.792Z,-2.90
2017-12-09T07:33:16.191Z,-2.90
2017-12-09T07:35:44.534Z,-2.90
2017-12-09T07:38:12.873Z,-2.90
2017-12-09T07:40:41.264Z,-2.90
2017-12-09T07:43:09.642Z,-2.90
2017-12-09T07:45:38.893Z,-2.90
2017-12-09T07:48:07.292Z,-2.90
2017-12-09T07:50:35.663Z,-2.80
2017-12-09T07:53:03.984Z,-2.80
2017-12-09T07:55:32.371Z,-2.90
2017-12-09T07:58:00.755Z,-2.90
2017-12-09T08:00:29.154Z,-2.90
2017-12-09T08:02:57.473Z,-2.90
2017-12-09T08:05:26.603Z,-2.90
2017-12-09T08:07:55.916Z,-2.90
2017-12-09T08:10:24.428Z,-2.90
2017-12-09T08:12:52.830Z,-2.90
2017-12-09T08:15:21.180Z,-2.80
2017-12-09T08:17:50.364Z,-2.80
2017-12-09T08:20:18.705Z,-2.80
2017-12-09T08:22:47.074Z,-2.80
2017-12-09T08:25:16.212Z,-2.70
2017-12-09T08:27:44.583Z,-2.80
2017-12-09T08:30:13.067Z,-2.70
2017-12-09T08:32:43.327Z,-2.70
2017-12-09T08:35:11.694Z,-2.70
2017-12-09T08:37:40.156Z,-2.70
2017-12-09T08:40:08.539Z,-2.70
2017-12-09T08:42:36.908Z,-2.60
2017-12-09T08:45:05.234Z,-2.60
2017-12-09T08:47:33.582Z,-2.60
2017-12-09T08:50:01.938Z,-2.60
2017-12-09T08:52:31.309Z,-2.50
2017-12-09T08:54:59.654Z,-2.50
2017-12-09T08:57:28.935Z,-2.50
2017-12-09T08:59:58.058Z,-2.50
2017-12-09T09:02:26.435Z,-2.50
2017-12-09T09:04:54.822Z,-2.50
2017-12-09T09:07:23.201Z,-2.50
2017-12-09T09:09:51.551Z,-2.50
2017-12-09T09:12:19.905Z,-2.50
2017-12-09T09:14:49.059Z,-2.40
2017-12-09T09:17:17.414Z,-2.40
2017-12-09T09:19:45.899Z,-2.30
2017-12-09T09:22:15.015Z,-2.30
2017-12-09T09:24:44.100Z,-2.20
2017-12-09T09:27:12.439Z,-2.20
2017-12-09T09:29:40.788Z,-2.10
2017-12-09T09:32:09.177Z,-2.10
2017-12-09T09:34:37.566Z,-2.10
2017-12-09T09:37:06.826Z,-2.10
2017-12-09T09:39:35.170Z,-2.10
2017-12-09T09:42:04.267Z,-2.10
2017-12-09T09:44:32.575Z,-2.10
2017-12-09T09:47:01.643Z,-2.00
2017-12-09T09:49:29.994Z,-2.00
2017-12-09T09:51:58.424Z,-2.00
2017-12-09T09:54:26.758Z,-2.00
2017-12-09T09:56:55.837Z,-1.90
2017-12-09T09:59:24.133Z,-2.00
2017-12-09T10:01:52.436Z,-1.90
2017-12-09T10:04:21.764Z,-1.80
2017-12-09T10:06:50.884Z,-1.90
2017-12-09T10:09:19.241Z,-1.90
2017-12-09T10:11:47.615Z,-1.90
2017-12-09T10:14:16.016Z,-2.00
2017-12-09T10:16:44.398Z,-1.90
2017-12-09T10:19:12.762Z,-1.90
2017-12-09T10:21:41.814Z,-1.90
2017-12-09T10:24:10.335Z,-1.80
2017-12-09T10:26:38.693Z,-1.80
2017-12-09T10:29:07.167Z,-1.80
2017-12-09T10:31:35.538Z,-1.80
2017-12-09T10:34:03.916Z,-1.80
2017-12-09T10:36:32.295Z,-1.70
2017-12-09T10:39:00.685Z,-1.80
2017-12-09T10:41:28.993Z,-1.80
2017-12-09T10:43:57.296Z,-1.80
2017-12-09T10:46:26.365Z,-1.90
2017-12-09T10:48:54.683Z,-1.90
2017-12-09T10:51:22.971Z,-1.90
2017-12-09T10:53:51.435Z,-1.90
2017-12-09T10:56:19.764Z,-1.90
2017-12-09T10:58:48.113Z,-1.80
2017-12-09T11:01:17.250Z,-1.70
2017-12-09T11:03:45.623Z,-1.70
2017-12-09T11:06:14.760Z,-1.50
2017-12-09T11:08:43.100Z,-1.60
2017-12-09T11:11:11.440Z,-1.50
2017-12-09T11:13:39.753Z,-1.40
2017-12-09T11:16:08.313Z,-1.40
2017-12-09T11:18:37.719Z,-1.30
2017-12-09T11:21:10.254Z,-1.30
2017-12-09T11:23:38.674Z,-1.30
2017-12-09T11:26:07.754Z,-1.30
2017-12-09T11:28:36.073Z,-1.30
2017-12-09T11:31:04.411Z,-1.30
2017-12-09T11:33:32.892Z,-1.40
2017-12-09T11:36:01.304Z,-1.40
2017-12-09T11:38:29.601Z,-1.40
2017-12-09T11:40:57.937Z,-1.40
2017-12-09T11:43:26.253Z,-1.50
2017-12-09T11:45:55.708Z,-1.50
2017-12-09T11:48:24.074Z,-1.50
2017-12-09T11:50:52.424Z,-1.50
2017-12-09T11:53:21.528Z,-1.40
2017-12-09T11:55:50.676Z,-1.50
2017-12-09T11:58:19.046Z,-1.50
2017-12-09T12:00:48.322Z,-1.50
2017-12-09T12:03:16.624Z,-1.50
2017-12-09T12:05:44.968Z,-1.60
2017-12-09T12:08:13.343Z,-1.60
2017-12-09T12:10:41.693Z,-1.60
2017-12-09T12:13:10.108Z,-1.60
2017-12-09T12:15:38.432Z,-1.50
2017-12-09T12:18:06.776Z,-1.40
2017-12-09T12:20:35.856Z,-1.30
2017-12-09T12:23:04.314Z,-1.30
2017-12-09T12:25:32.674Z,-1.20
2017-12-09T12:28:01.797Z,-1.10
2017-12-09T12:30:30.151Z,-1.20
2017-12-09T12:32:58.550Z,-1.10
2017-12-09T12:35:26.938Z,-1.20
2017-12-09T12:37:55.317Z,-1.20
2017-12-09T12:40:23.698Z,-1.20
2017-12-09T12:42:52.066Z,-1.20
2017-12-09T12:45:20.418Z,-1.30
2017-12-09T12:47:49.701Z,-1.30
2017-12-09T12:50:18.062Z,-1.20
2017-12-09T12:52:46.384Z,-1.20
2017-12-09T12:55:14.780Z,-1.10
2017-12-09T12:57:43.094Z,-1.10
2017-12-09T13:00:11.407Z,-1.20
2017-12-09T13:02:39.701Z,-1.20
2017-12-09T13:05:08.029Z,-1.20
2017-12-09T13:07:36.445Z,-1.20
2017-12-09T13:10:05.705Z,-1.10
2017-12-09T13:12:34.000Z,-1.10
2017-12-09T13:15:02.320Z,-1.10
2017-12-09T13:17:30.640Z,-1.10
2017-12-09T13:19:59.902Z,-1.10
2017-12-09T13:22:28.228Z,-1.10
2017-12-09T13:24:57.287Z,-1.00
2017-12-09T13:27:25.623Z,-1.00
2017-12-09T13:29:53.964Z,-1.00
2017-12-09T13:32:22.430Z,-1.00
2017-12-09T13:34:50.768Z,-1.10
2017-12-09T13:37:19.853Z,-1.20
2017-12-09T13:39:48.235Z,-1.20
2017-12-09T13:42:16.573Z,-1.30
2017-12-09T13:44:45.068Z,-1.20
2017-12-09T13:50:10.568Z,-1.20
2017-12-09T13:52:39.774Z,-1.20
2017-12-09T13:55:08.057Z,-1.20
2017-12-09T13:57:36.351Z,-1.20
2017-12-09T14:00:04.675Z,-1.20
2017-12-09T14:02:33.011Z,-1.20
2017-12-09T14:05:01.274Z,-1.20
2017-12-09T14:07:29.571Z,-1.20
2017-12-09T14:09:57.894Z,-1.20
2017-12-09T14:12:26.189Z,-1.20
2017-12-09T14:14:54.475Z,-1.20
2017-12-09T14:17:22.775Z,-1.20
2017-12-09T14:19:51.107Z,-1.20
2017-12-09T14:22:19.407Z,-1.20
2017-12-09T14:24:47.717Z,-1.30
2017-12-09T14:27:16.814Z,-1.30
2017-12-09T14:29:45.139Z,-1.30
2017-12-09T14:32:13.643Z,-1.30
2017-12-09T14:34:41.968Z,-1.30
2017-12-09T14:37:10.282Z,-1.40
2017-12-09T14:39:38.579Z,-1.40
2017-12-09T14:42:07.675Z,-1.40
2017-12-09T14:44:36.034Z,-1.40
2017-12-09T14:47:04.404Z,-1.40
2017-12-09T14:49:32.766Z,-1.40
2017-12-09T14:52:01.144Z,-1.40
2017-12-09T14:54:30.301Z,-1.30
2017-12-09T14:56:58.695Z,-1.40
2017-12-09T14:59:27.023Z,-1.30
2017-12-09T15:01:55.333Z,-1.30
2017-12-09T15:04:24.403Z,-1.30
2017-12-09T15:06:53.454Z,-1.40
2017-12-09T15:09:21.749Z,-1.30
2017-12-09T15:11:50.072Z,-1.30
2017-12-09T15:14:18.737Z,-1.40
2017-12-09T15:16:47.123Z,-1.40
2017-12-09T15:19:15.504Z,-1.40
2017-12-09T15:21:43.874Z,-1.40
2017-12-09T15:24:12.265Z,-1.40
2017-12-09T15:26:41.460Z,-1.40
2017-12-09T15:29:09.775Z,-1.40
2017-12-09T15:31:38.878Z,-1.40
2017-12-09T15:34:07.170Z,-1.40
2017-12-09T15:36:36.242Z,-1.40
2017-12-09T15:39:04.561Z,-1.40
2017-12-09T15:41:37.720Z,-1.40
2017-12-09T15:44:06.149Z,-1.40
2017-12-09T15:46:34.524Z,-1.40
2017-12-09T15:49:02.893Z,-1.40
2017-12-09T15:51:31.280Z,-1.40
2017-12-09T15:53:59.667Z,-1.40
2017-12-09T15:56:28.029Z,-1.40
2017-12-09T15:58:56.351Z,-1.40
2017-12-09T16:01:24.739Z,-1.40
2017-12-09T16:03:53.338Z,-1.40
2017-12-09T16:06:28.407Z,-1.40
2017-12-09T16:08:56.754Z,-1.40
2017-12-09T16:11:25.151Z,-1.40
2017-12-09T16:13:53.468Z,-1.40
2017-12-09T16:16:21.780Z,-1.50
2017-12-09T16:18:50.221Z,-1.50
2017-12-09T16:21:18.832Z,-1.50
2017-12-09T16:23:47.159Z,-1.50
2017-12-09T16:26:15.466Z,-1.50
2017-12-09T16:28:44.612Z,-1.60
2017-12-09T16:31:12.990Z,-1.60
2017-12-09T16:33:41.350Z,-1.60
2017-12-09T16:36:10.752Z,-1.60
2017-12-09T16:38:39.077Z,-1.50
2017-12-09T16:41:08.178Z,-1.60
2017-12-09T16:43:36.612Z,-1.60
2017-12-09T16:46:04.947Z,-1.60
2017-12-09T16:48:33.321Z,-1.60
2017-12-09T16:51:01.699Z,-1.60
2017-12-09T16:53:30.083Z,-1.60
2017-12-09T16:55:58.464Z,-1.60
2017-12-09T16:58:26.843Z,-1.60
2017-12-09T17:00:55.172Z,-1.60
2017-12-09T17:03:23.532Z,-1.70
2017-12-09T17:05:51.960Z,-1.70
2017-12-09T17:08:20.292Z,-1.70
2017-12-09T17:10:48.740Z,-1.70
2017-12-09T17:13:17.146Z,-1.70
2017-12-09T17:15:45.574Z,-1.70
2017-12-09T17:18:14.173Z,-1.70
2017-12-09T17:20:42.540Z,-1.70
2017-12-09T17:23:11.681Z,-1.80
2017-12-09T17:25:40.093Z,-1.80
2017-12-09T17:28:08.467Z,-1.80
2017-12-09T17:30:37.046Z,-1.80
2017-12-09T17:33:05.415Z,-1.80
2017-12-09T17:35:34.490Z,-1.80
2017-12-09T17:38:02.810Z,-1.80
2017-12-09T17:40:31.238Z,-1.80
2017-12-09T17:42:59.646Z,-1.80
2017-12-09T17:45:28.133Z,-1.80
2017-12-09T17:47:56.601Z,-1.90
2017-12-09T17:50:25.004Z,-1.90
2017-12-09T17:52:53.382Z,-1.90
2017-12-09T17:55:21.738Z,-1.90
2017-12-09T17:57:50.899Z,-1.90
2017-12-09T18:00:19.278Z,-2.00
2017-12-09T18:02:47.623Z,-1.90
2017-12-09T18:05:16.772Z,-2.00
2017-12-09T18:07:45.117Z,-2.00
2017-12-09T18:10:13.463Z,-1.90
2017-12-09T18:12:41.810Z,-2.00
2017-12-09T18:15:10.130Z,-2.00
2017-12-09T18:17:39.239Z,-2.00
2017-12-09T18:20:07.608Z,-2.00
2017-12-09T18:22:36.682Z,-2.00
2017-12-09T18:25:05.006Z,-2.00
2017-12-09T18:27:34.091Z,-2.10
2017-12-09T18:30:02.397Z,-2.10
2017-12-09T18:32:30.786Z,-2.00
2017-12-09T18:34:59.083Z,-2.00
2017-12-09T18:37:28.235Z,-2.00
2017-12-09T18:39:56.580Z,-2.10
2017-12-09T18:42:24.966Z,-2.10
2017-12-09T18:44:53.339Z,-2.10
2017-12-09T18:47:21.663Z,-2.10
2017-12-09T18:49:50.716Z,-2.00
2017-12-09T18:52:19.035Z,-2.10
2017-12-09T18:54:47.333Z,-2.10
2017-12-09T18:57:15.626Z,-2.10
2017-12-09T18:59:43.953Z,-2.10
2017-12-09T19:02:12.291Z,-2.10
2017-12-09T19:04:40.686Z,-2.10
2017-12-09T19:07:08.985Z,-2.10
2017-12-09T19:09:37.290Z,-2.10
2017-12-09T19:12:05.588Z,-2.10
2017-12-09T19:14:34.704Z,-2.10
2017-12-09T19:17:03.116Z,-2.20
2017-12-09T19:19:31.509Z,-2.20
2017-12-09T19:21:59.926Z,-2.20
2017-12-09T19:24:28.225Z,-2.20
2017-12-09T19:26:56.706Z,-2.20
2017-12-09T19:29:25.095Z,-2.20
2017-12-09T19:31:53.475Z,-2.20
2017-12-09T19:34:21.844Z,-2.30
2017-12-09T19:36:50.209Z,-2.30
2017-12-09T19:39:19.348Z,-2.30
2017-12-09T19:41:47.698Z,-2.30
2017-12-09T19:44:16.077Z,-2.30
2017-12-09T19:46:44.400Z,-2.30
2017-12-09T19:49:12.761Z,-2.30
2017-12-09T19:51:41.129Z,-2.30
2017-12-09T19:54:09.515Z,-2.40
2017-12-09T19:56:37.849Z,-2.40
2017-12-09T19:59:06.999Z,-2.40
2017-12-09T20:01:36.292Z,-2.40
2017-12-09T20:04:04.615Z,-2.40
2017-12-09T20:06:32.946Z,-2.40
2017-12-09T20:09:02.006Z,-2.40
2017-12-09T20:11:30.351Z,-2.40
2017-12-09T20:13:59.402Z,-2.40
2017-12-09T20:16:27.721Z,-2.40
2017-12-09T20:18:56.010Z,-2.40
2017-12-09T20:21:24.302Z,-2.50
2017-12-09T20:23:52.643Z,-2.50
2017-12-09T20:26:20.946Z,-2.50
2017-12-09T20:28:49.234Z,-2.50
2017-12-09T20:31:18.531Z,-2.50
2017-12-09T20:33:46.838Z,-2.50
2017-12-09T20:36:15.190Z,-2.60
2017-12-09T20:38:44.356Z,-2.60
2017-12-09T20:41:12.709Z,-2.60
2017-12-09T20:43:41.010Z,-2.60
2017-12-09T20:46:09.376Z,-2.60
2017-12-09T20:48:37.765Z,-2.60
2017-12-09T20:51:06.895Z,-2.60
2017-12-09T20:53:35.273Z,-2.70
2017-12-09T20:56:03.629Z,-2.70
2017-12-09T20:58:31.950Z,-2.70
2017-12-09T21:01:00.244Z,-2.70
2017-12-09T21:03:28.550Z,-2.70
2017-12-09T21:05:56.891Z,-2.70
2017-12-09T21:08:25.979Z,-2.80
2017-12-09T21:10:54.374Z,-2.80
2017-12-09T21:13:22.813Z,-2.80
2017-12-09T21:15:51.477Z,-2.80
2017-12-09T21:18:19.844Z,-2.80
2017-12-09T21:20:49.334Z,-2.80
2017-12-09T21:23:17.668Z,-2.80
2017-12-09T21:25:46.063Z,-2.80
2017-12-09T21:28:14.395Z,-2.90
2017-12-09T21:30:42.703Z,-3.00
2017-12-09T21:33:11.001Z,-3.00
2017-12-09T21:35:39.385Z,-3.00
2017-12-09T21:38:07.780Z,-3.10
2017-12-09T21:40:36.174Z,-3.10
2017-12-09T21:43:04.533Z,-3.10
2017-12-09T21:45:32.900Z,-3.00
2017-12-09T21:48:04.617Z,-3.00
2017-12-09T21:50:33.180Z,-3.00
2017-12-09T21:53:01.513Z,-2.90
2017-12-09T21:55:29.876Z,-2.90
2017-12-09T21:57:58.213Z,-2.90
2017-12-09T22:00:26.511Z,-2.90
2017-12-09T22:02:54.811Z,-2.90
2017-12-09T22:05:23.940Z,-2.90
2017-12-09T22:07:53.013Z,-2.90
2017-12-09T22:10:21.347Z,-2.90
2017-12-09T22:12:49.639Z,-2.90
2017-12-09T22:15:17.942Z,-2.90
2017-12-09T22:17:46.312Z,-2.90
2017-12-09T22:20:14.703Z,-2.90
2017-12-09T22:22:43.076Z,-2.90
2017-12-09T22:25:11.489Z,-2.90
2017-12-09T22:27:40.126Z,-2.90
2017-12-09T22:30:08.470Z,-2.90
2017-12-09T22:32:36.775Z,-2.90
2017-12-09T22:35:05.127Z,-2.90
2017-12-09T22:37:33.513Z,-2.90
2017-12-09T22:40:01.890Z,-2.90
2017-12-09T22:42:30.214Z,-2.80
2017-12-09T22:44:59.288Z,-2.80
2017-12-09T22:47:27.617Z,-2.90
2017-12-09T22:49:55.927Z,-2.80
2017-12-09T22:52:24.245Z,-2.80
2017-12-09T22:54:52.682Z,-2.80
2017-12-09T22:57:21.750Z,-2.90
2017-12-09T22:59:50.087Z,-2.90
2017-12-09T23:02:18.388Z,-2.90
2017-12-09T23:04:46.665Z,-2.90
2017-12-09T23:07:14.970Z,-2.80
2017-12-09T23:09:43.599Z,-2.80
2017-12-09T23:12:11.960Z,-2.80
2017-12-09T23:14:40.368Z,-2.80
2017-12-09T23:17:08.692Z,-2.80
2017-12-09T23:19:37.007Z,-2.80
2017-12-09T23:22:06.116Z,-2.80
2017-12-09T23:24:34.485Z,-2.80
2017-12-09T23:27:02.847Z,-2.80
2017-12-09T23:29:31.234Z,-2.80
2017-12-09T23:31:59.605Z,-2.70
2017-12-09T23:34:27.971Z,-2.70
2017-12-09T23:36:56.371Z,-2.70
2017-12-09T23:39:24.740Z,-2.60
2017-12-09T23:41:53.864Z,-2.70
2017-12-09T23:44:23.031Z,-2.60
2017-12-09T23:46:51.403Z,-2.70
2017-12-09T23:49:20.569Z,-2.60
2017-12-09T23:51:49.943Z,-2.60
2017-12-09T23:54:18.339Z,-2.60
2017-12-09T23:56:46.693Z,-2.60
2017-12-09T23:59:15.065Z,-2.60
